Alden Manor, New York
Current Conditions -  °F | °C
As of 1:51 PM on Thursday 27 Nov 2014 (Local Time) from KJFK Reporting Station
Overcast Overcast  
Wind Chill:   Ceiling: 1300
Heat Index:   Visibility: 10mi
Dew Point:   Wind: 8mph
Humidity: 83%   Direction: 360°N
Pressure: 29.99"   Gusts: NA
Location:  40.7013°N, 73.7074°W
Report Text: KJFK 271851Z 36007KT 10SM BKN013 BKN019 OVC027 03/01 A2999 RMK AO2 RAE10 SLP153 P0000 T00330006 $
Loading
Personal Weather Stations






























Interactive Weather Map New forecast layout! Learn more

10-Day Weather Forecast

Advertisements
Track Severe Weather on mobile